Time;durP1;ratioP1;P1;durP2;ratioP2;P2;SDS_P1;SDS_P2;PMS_P1;PMS_P2;Temp;Humidity;BMP_temperature;BMP_pressure;BME280_temperature;BME280_humidity;BME280_pressure;Samples;Min_cycle;Max_cycle;Signal;HPM_P1;HPM_P2
2023/12/05 00:01:39;;;;;;;36.27;21.93;;;-1.30;99.90;;;;;;5047162;28;20320;-52
2023/12/05 00:04:05;;;;;;;36.73;22.50;;;-1.20;99.90;;;;;;5031542;28;20206;-55
2023/12/05 00:06:30;;;;;;;36.47;21.33;;;-1.10;99.90;;;;;;5044292;28;20198;-53
2023/12/05 00:08:56;;;;;;;31.33;18.57;;;-1.10;99.90;;;;;;5053749;28;20234;-52
2023/12/05 00:11:21;;;;;;;33.60;21.73;;;-1.10;99.90;;;;;;5043189;28;20361;-53
2023/12/05 00:13:47;;;;;;;36.73;21.83;;;-1.10;99.90;;;;;;5039328;28;20207;-53
2023/12/05 00:16:13;;;;;;;34.00;21.23;;;-1.00;99.90;;;;;;5037497;28;21168;-53
2023/12/05 00:18:38;;;;;;;37.43;22.10;;;-1.10;99.90;;;;;;5032372;28;20687;-53
2023/12/05 00:21:05;;;;;;;36.57;21.97;;;-1.30;99.90;;;;;;5046775;28;20232;-53
2023/12/05 00:23:31;;;;;;;34.90;21.43;;;-1.10;99.90;;;;;;5026069;28;20962;-53
2023/12/05 00:25:56;;;;;;;36.23;20.33;;;-1.10;99.90;;;;;;5046025;28;20206;-53
2023/12/05 00:28:22;;;;;;;34.30;20.97;;;-1.00;99.90;;;;;;5045002;28;20200;-52
2023/12/05 00:30:47;;;;;;;34.07;21.53;;;-1.10;99.90;;;;;;5044456;28;20191;-52
2023/12/05 00:33:13;;;;;;;36.40;21.70;;;-1.00;99.90;;;;;;5048101;28;20206;-52
2023/12/05 00:35:39;;;;;;;32.60;19.50;;;-1.10;99.90;;;;;;5049470;28;20194;-53
2023/12/05 00:38:05;;;;;;;32.73;19.77;;;-0.90;99.90;;;;;;5047428;28;20475;-52
2023/12/05 00:40:31;;;;;;;36.33;21.60;;;-0.80;99.90;;;;;;5050719;28;20985;-54
2023/12/05 00:42:57;;;;;;;38.30;21.60;;;-0.80;99.90;;;;;;5053169;28;20651;-53
2023/12/05 00:45:22;;;;;;;37.27;20.77;;;-0.80;99.90;;;;;;5042407;28;20206;-54
2023/12/05 00:47:48;;;;;;;33.33;20.73;;;-0.80;99.90;;;;;;5046147;28;20198;-54
2023/12/05 00:50:14;;;;;;;39.07;21.60;;;-0.70;99.90;;;;;;5047847;28;20238;-53
2023/12/05 00:52:39;;;;;;;33.03;20.30;;;-0.70;99.90;;;;;;5025819;28;20218;-53
2023/12/05 00:55:05;;;;;;;36.53;22.00;;;-0.80;99.90;;;;;;5045879;28;20201;-53
2023/12/05 00:57:31;;;;;;;38.67;22.50;;;-0.80;99.90;;;;;;5045235;28;20992;-53
2023/12/05 00:59:56;;;;;;;38.50;21.07;;;-0.80;99.90;;;;;;5048091;28;20196;-54
2023/12/05 01:02:23;;;;;;;39.37;22.17;;;-0.80;99.90;;;;;;5033847;28;20309;-54
2023/12/05 01:04:48;;;;;;;40.40;21.50;;;-0.70;99.90;;;;;;5041107;28;20204;-53
2023/12/05 01:07:14;;;;;;;32.67;18.57;;;-0.80;99.90;;;;;;5044359;28;20216;-53
2023/12/05 01:09:40;;;;;;;36.57;21.33;;;-1.00;99.90;;;;;;5037635;28;20282;-53
2023/12/05 01:12:07;;;;;;;33.57;22.10;;;-0.90;99.90;;;;;;5038311;28;20384;-53
2023/12/05 01:14:33;;;;;;;35.10;21.60;;;-0.80;99.90;;;;;;5023415;28;20235;-53
2023/12/05 01:16:58;;;;;;;32.10;20.60;;;-0.70;99.90;;;;;;5030168;28;20199;-54
2023/12/05 01:19:24;;;;;;;33.53;22.20;;;-0.70;99.90;;;;;;5038684;28;20713;-53
2023/12/05 01:21:49;;;;;;;36.27;22.63;;;-0.80;99.90;;;;;;5025453;28;20729;-53
2023/12/05 01:24:15;;;;;;;31.33;20.73;;;-0.80;99.90;;;;;;5044042;28;20287;-53
2023/12/05 01:26:40;;;;;;;38.33;21.47;;;-1.00;99.90;;;;;;5023404;28;20206;-53
2023/12/05 01:29:06;;;;;;;30.87;18.40;;;-0.90;99.90;;;;;;5043866;28;20211;-54
2023/12/05 01:31:31;;;;;;;34.83;20.13;;;-1.10;99.90;;;;;;5026717;28;20342;-53
2023/12/05 01:33:57;;;;;;;43.63;23.00;;;-1.00;99.90;;;;;;5037598;28;20202;-53
2023/12/05 01:36:22;;;;;;;32.90;21.97;;;-0.90;99.90;;;;;;5039605;28;20210;-52
2023/12/05 01:38:48;;;;;;;32.83;20.40;;;-1.00;99.90;;;;;;5039633;28;20568;-53
2023/12/05 01:41:14;;;;;;;33.60;20.13;;;-0.90;99.90;;;;;;5046208;28;20225;-53
2023/12/05 01:43:39;;;;;;;33.97;20.37;;;-0.90;99.90;;;;;;5042541;28;20195;-53
2023/12/05 01:46:06;;;;;;;31.13;20.90;;;-1.00;99.90;;;;;;5014632;28;20265;-52
2023/12/05 01:48:33;;;;;;;36.00;20.63;;;-1.00;99.90;;;;;;5042873;28;20301;-53
2023/12/05 01:51:01;;;;;;;31.60;18.90;;;-0.80;99.90;;;;;;5043691;28;20194;-52
2023/12/05 01:53:28;;;;;;;32.37;21.90;;;-0.70;99.90;;;;;;5045147;28;20200;-53
2023/12/05 01:55:54;;;;;;;35.23;20.97;;;-0.80;99.90;;;;;;5022732;28;20283;-52
2023/12/05 01:58:20;;;;;;;30.53;21.20;;;-0.80;99.90;;;;;;5037271;28;20616;-53
2023/12/05 02:00:46;;;;;;;32.50;18.50;;;-0.80;99.90;;;;;;5042729;28;20289;-52
2023/12/05 02:03:12;;;;;;;32.60;21.17;;;-0.80;99.90;;;;;;5047507;28;20235;-66
2023/12/05 02:05:38;;;;;;;32.33;20.37;;;-0.70;99.90;;;;;;5036138;28;20211;-64
2023/12/05 02:08:06;;;;;;;30.07;21.50;;;-0.80;99.90;;;;;;5042014;28;20230;-53
2023/12/05 02:10:31;;;;;;;31.83;21.43;;;-0.60;99.90;;;;;;5032478;28;20187;-52
2023/12/05 02:12:57;;;;;;;39.07;21.80;;;-0.80;99.90;;;;;;5021456;28;20206;-51
2023/12/05 02:15:22;;;;;;;36.03;22.93;;;-0.80;99.90;;;;;;5048088;28;20840;-53
2023/12/05 02:18:07;;;;;;;32.23;20.07;;;-0.60;99.90;;;;;;5043201;28;20202;-53
2023/12/05 02:20:45;;;;;;;30.77;19.93;;;-0.60;99.90;;;;;;5033642;28;20223;-53
2023/12/05 02:23:26;;;;;;;33.90;22.43;;;-0.60;99.90;;;;;;5045794;28;21171;-52
2023/12/05 02:25:57;;;;;;;27.07;15.57;;;-0.60;99.90;;;;;;5044132;28;20235;-54
2023/12/05 02:28:24;;;;;;;35.77;22.17;;;-0.60;99.90;;;;;;5023932;28;20233;-53
2023/12/05 02:30:50;;;;;;;32.30;21.43;;;-0.70;99.90;;;;;;5044958;28;20210;-60
2023/12/05 02:33:15;;;;;;;34.77;19.30;;;-0.70;99.90;;;;;;5049661;28;20196;-53
2023/12/05 02:35:41;;;;;;;26.87;17.23;;;-0.80;99.90;;;;;;5042052;28;20194;-53
2023/12/05 02:38:24;;;;;;;31.73;21.23;;;-0.90;99.90;;;;;;5042156;28;20199;-53
2023/12/05 02:40:59;;;;;;;34.00;21.07;;;-0.90;99.90;;;;;;5038107;28;20325;-59
2023/12/05 02:43:32;;;;;;;35.27;21.53;;;-1.10;99.90;;;;;;5020902;28;20924;-52
2023/12/05 02:45:58;;;;;;;33.63;22.83;;;-1.10;99.90;;;;;;5036005;28;20201;-52
2023/12/05 02:48:25;;;;;;;31.93;21.40;;;-1.10;99.90;;;;;;5042968;28;20698;-53
2023/12/05 02:50:52;;;;;;;34.07;20.87;;;-0.90;99.90;;;;;;5040309;28;20869;-52
2023/12/05 02:53:18;;;;;;;27.20;19.40;;;-0.90;99.90;;;;;;5048739;28;20250;-52
2023/12/05 02:55:44;;;;;;;33.23;18.97;;;-1.10;99.90;;;;;;5037605;28;21035;-52
2023/12/05 02:58:09;;;;;;;33.37;21.23;;;-1.00;99.90;;;;;;5046684;28;20872;-53
2023/12/05 03:00:35;;;;;;;36.67;21.13;;;-1.10;99.90;;;;;;5045200;28;20221;-52
2023/12/05 03:03:00;;;;;;;35.80;21.93;;;-1.00;99.90;;;;;;5045794;28;20355;-52
2023/12/05 03:05:26;;;;;;;36.70;21.67;;;-1.00;99.90;;;;;;5044888;28;20275;-52
2023/12/05 03:07:51;;;;;;;33.83;21.37;;;-0.90;99.90;;;;;;5043590;28;20216;-53
2023/12/05 03:10:17;;;;;;;36.63;21.60;;;-0.90;99.90;;;;;;5042807;28;20206;-53
2023/12/05 03:12:42;;;;;;;36.03;20.27;;;-0.90;99.90;;;;;;5033869;28;20204;-55
2023/12/05 03:15:08;;;;;;;37.90;21.10;;;-1.10;99.90;;;;;;5031131;28;20219;-52
2023/12/05 03:17:33;;;;;;;34.67;20.33;;;-1.00;99.90;;;;;;5046139;28;20510;-53
2023/12/05 03:19:59;;;;;;;32.03;19.43;;;-1.10;99.90;;;;;;5040354;28;20257;-58
2023/12/05 03:22:24;;;;;;;33.53;19.77;;;-1.00;99.90;;;;;;5030228;28;20857;-53
2023/12/05 03:24:50;;;;;;;35.00;20.73;;;-1.20;99.90;;;;;;5034478;28;20210;-54
2023/12/05 03:27:16;;;;;;;33.43;21.27;;;-1.20;99.90;;;;;;5040452;28;20229;-53
2023/12/05 03:29:41;;;;;;;31.40;18.93;;;-1.20;99.90;;;;;;5037534;28;20204;-52
2023/12/05 03:32:07;;;;;;;22.30;15.93;;;-1.20;99.90;;;;;;5038884;28;20211;-53
2023/12/05 03:34:33;;;;;;;45.07;24.50;;;-1.10;99.90;;;;;;5036266;28;20846;-53
2023/12/05 03:36:58;;;;;;;35.40;21.30;;;-1.10;99.90;;;;;;5027398;28;20203;-53
2023/12/05 03:39:24;;;;;;;32.33;20.13;;;-1.10;99.90;;;;;;5039614;28;20201;-53
2023/12/05 03:41:49;;;;;;;39.73;23.80;;;-1.00;99.90;;;;;;5027071;28;20929;-53
2023/12/05 03:44:15;;;;;;;32.73;20.97;;;-0.80;99.90;;;;;;5042352;28;20214;-54
2023/12/05 03:46:40;;;;;;;32.97;19.97;;;-0.90;99.90;;;;;;5020636;28;20224;-54
2023/12/05 03:49:06;;;;;;;36.27;21.87;;;-0.90;99.90;;;;;;5039055;28;20215;-54
2023/12/05 03:51:31;;;;;;;35.70;21.67;;;-0.90;99.90;;;;;;5038545;28;20204;-51
2023/12/05 03:53:57;;;;;;;35.33;20.20;;;-0.80;99.90;;;;;;5035777;28;20204;-52
2023/12/05 03:56:22;;;;;;;33.87;19.70;;;-0.90;99.90;;;;;;5043458;28;20218;-53
2023/12/05 03:58:48;;;;;;;40.27;21.67;;;-0.90;99.90;;;;;;5048510;28;20195;-54
2023/12/05 04:01:15;;;;;;;38.93;23.77;;;-0.90;99.90;;;;;;5037271;28;20220;-53
2023/12/05 04:03:42;;;;;;;40.13;22.53;;;-1.00;99.90;;;;;;5048456;28;20236;-53
2023/12/05 04:06:08;;;;;;;34.40;20.43;;;-0.90;99.90;;;;;;5042069;28;20748;-53
2023/12/05 04:08:33;;;;;;;33.03;22.17;;;-0.80;99.90;;;;;;5044935;28;20229;-52
2023/12/05 04:10:59;;;;;;;35.93;21.20;;;-0.90;99.90;;;;;;5023186;28;21095;-53
2023/12/05 04:13:24;;;;;;;36.23;20.63;;;-0.80;99.90;;;;;;5042561;28;20267;-53
2023/12/05 04:15:50;;;;;;;37.03;17.17;;;-0.80;99.90;;;;;;5050599;28;20312;-53
2023/12/05 04:18:15;;;;;;;36.97;22.63;;;-0.90;99.90;;;;;;5029144;28;20204;-53
2023/12/05 04:20:41;;;;;;;23.00;15.40;;;-1.00;99.90;;;;;;5031218;28;20218;-53
2023/12/05 04:23:07;;;;;;;36.67;21.53;;;-1.00;99.90;;;;;;5045333;28;20757;-53
2023/12/05 04:25:32;;;;;;;31.13;21.00;;;-1.00;99.90;;;;;;5028326;28;20196;-53
2023/12/05 04:27:58;;;;;;;35.77;22.40;;;-0.80;99.90;;;;;;5047370;28;20222;-53
2023/12/05 04:30:23;;;;;;;33.27;21.47;;;-0.80;99.90;;;;;;5044754;28;20293;-54
2023/12/05 04:32:49;;;;;;;33.33;19.90;;;-0.70;99.90;;;;;;5049754;28;20202;-53
2023/12/05 04:35:15;;;;;;;35.93;21.03;;;-0.80;99.90;;;;;;5052431;28;20196;-54
2023/12/05 04:37:40;;;;;;;31.33;20.23;;;-0.80;99.90;;;;;;5048771;28;20229;-52
2023/12/05 04:40:08;;;;;;;33.90;21.33;;;-0.80;99.90;;;;;;5047447;28;20641;-52
2023/12/05 04:42:33;;;;;;;28.63;19.77;;;-0.80;99.90;;;;;;5024043;28;20218;-52
2023/12/05 04:44:59;;;;;;;41.80;23.10;;;-0.80;99.90;;;;;;5027642;28;20222;-54
2023/12/05 04:47:24;;;;;;;30.70;21.00;;;-0.80;99.90;;;;;;5045347;28;20274;-53
2023/12/05 04:49:50;;;;;;;35.23;21.83;;;-0.70;99.90;;;;;;5045321;28;20730;-53
2023/12/05 04:52:15;;;;;;;36.60;22.13;;;-0.80;99.90;;;;;;5045414;28;20211;-53
2023/12/05 04:54:41;;;;;;;28.10;17.07;;;-0.70;99.90;;;;;;5045090;28;20196;-53
2023/12/05 04:57:06;;;;;;;34.30;21.47;;;-0.80;99.90;;;;;;5047228;28;20219;-53
2023/12/05 04:59:32;;;;;;;34.37;21.77;;;-0.80;99.90;;;;;;5045555;28;20207;-52
2023/12/05 05:01:57;;;;;;;34.73;20.87;;;-0.70;99.90;;;;;;5044551;28;20234;-53
2023/12/05 05:04:23;;;;;;;37.77;22.33;;;-0.80;99.90;;;;;;5038783;28;20264;-56
2023/12/05 05:06:48;;;;;;;35.17;23.13;;;-0.90;99.90;;;;;;5049172;28;20206;-53
2023/12/05 05:09:14;;;;;;;36.67;22.60;;;-0.80;99.90;;;;;;5037949;28;20669;-53
2023/12/05 05:11:39;;;;;;;35.33;21.53;;;-0.70;99.90;;;;;;5043799;28;20202;-52
2023/12/05 05:14:05;;;;;;;35.23;21.33;;;-0.60;99.90;;;;;;5023684;28;20209;-53
2023/12/05 05:16:30;;;;;;;19.57;11.43;;;-0.70;99.90;;;;;;5038946;28;20205;-53
2023/12/05 05:18:56;;;;;;;33.60;22.43;;;-0.70;99.90;;;;;;5035783;28;20710;-52
2023/12/05 05:21:21;;;;;;;31.77;21.00;;;-0.80;99.90;;;;;;5049148;28;20226;-53
2023/12/05 05:23:47;;;;;;;38.40;20.97;;;-0.70;99.90;;;;;;5046973;28;20207;-53
2023/12/05 05:26:14;;;;;;;33.67;21.73;;;-0.60;99.90;;;;;;5036167;28;20267;-53
2023/12/05 05:28:39;;;;;;;33.13;21.20;;;-0.70;99.90;;;;;;5051529;28;20275;-54
2023/12/05 05:31:05;;;;;;;33.80;23.17;;;-0.80;99.90;;;;;;5044340;28;20251;-52
2023/12/05 05:33:31;;;;;;;33.87;19.73;;;-0.70;99.90;;;;;;5042722;28;20207;-52
2023/12/05 05:35:56;;;;;;;36.10;22.33;;;-0.60;99.90;;;;;;5043480;28;20202;-52
2023/12/05 05:38:22;;;;;;;35.40;23.67;;;-0.60;99.90;;;;;;5045900;28;20241;-52
2023/12/05 05:40:47;;;;;;;29.80;21.33;;;-0.60;99.90;;;;;;5047136;28;20712;-52
2023/12/05 05:43:13;;;;;;;30.23;20.17;;;-0.50;99.90;;;;;;5038774;28;20204;-52
2023/12/05 05:45:38;;;;;;;28.67;21.50;;;-0.50;99.90;;;;;;5039731;28;20256;-52
2023/12/05 05:48:04;;;;;;;37.67;22.07;;;-0.40;99.90;;;;;;5036598;28;20209;-53
2023/12/05 05:50:30;;;;;;;32.13;20.40;;;-0.50;99.90;;;;;;5047716;28;20295;-53
2023/12/05 05:52:56;;;;;;;33.60;21.33;;;-0.50;99.90;;;;;;5048656;28;20203;-52
2023/12/05 05:55:24;;;;;;;32.27;21.50;;;-0.50;99.90;;;;;;5031944;28;20199;-53
2023/12/05 05:57:50;;;;;;;31.20;19.77;;;-0.50;99.90;;;;;;5032068;28;20194;-53
2023/12/05 06:00:17;;;;;;;31.83;21.20;;;-0.50;99.90;;;;;;5042995;28;20212;-53
2023/12/05 06:02:42;;;;;;;27.40;18.80;;;-0.50;99.90;;;;;;5046964;28;20396;-53
2023/12/05 06:05:08;;;;;;;38.23;22.07;;;-0.50;99.90;;;;;;5045665;28;20232;-52
2023/12/05 06:07:34;;;;;;;27.13;17.23;;;-0.70;99.90;;;;;;5044094;28;20311;-53
2023/12/05 06:09:59;;;;;;;33.97;22.40;;;-0.50;99.90;;;;;;5046714;28;20963;-52
2023/12/05 06:12:25;;;;;;;27.47;19.67;;;-0.60;99.90;;;;;;5046569;28;20282;-53
2023/12/05 06:14:51;;;;;;;29.43;21.87;;;-0.60;99.90;;;;;;5050297;28;20251;-53
2023/12/05 06:17:16;;;;;;;28.17;19.83;;;-0.60;99.90;;;;;;5048092;28;20361;-51
2023/12/05 06:19:42;;;;;;;32.77;21.47;;;-0.50;99.90;;;;;;5048441;28;20220;-51
2023/12/05 06:22:07;;;;;;;34.33;22.30;;;-0.50;99.90;;;;;;5056637;28;20418;-54
2023/12/05 06:24:33;;;;;;;32.07;21.80;;;-0.50;99.90;;;;;;5041725;28;20436;-53
2023/12/05 06:26:59;;;;;;;36.10;21.37;;;-0.50;99.90;;;;;;5051498;28;20838;-54
2023/12/05 06:29:25;;;;;;;30.60;20.30;;;-0.50;99.90;;;;;;5047570;28;20715;-53
2023/12/05 06:31:50;;;;;;;28.87;20.03;;;-0.60;99.90;;;;;;5050119;28;20206;-53
2023/12/05 06:34:15;;;;;;;34.13;20.73;;;-0.50;99.90;;;;;;5025658;28;20190;-53
2023/12/05 06:36:41;;;;;;;30.23;19.17;;;-0.60;99.90;;;;;;5048720;28;20207;-53
2023/12/05 06:39:08;;;;;;;32.67;21.50;;;-0.40;99.90;;;;;;5048400;28;20402;-56
2023/12/05 06:41:36;;;;;;;32.50;19.53;;;-0.50;99.90;;;;;;5049285;28;20582;-53
2023/12/05 06:44:02;;;;;;;32.07;20.50;;;-0.30;99.90;;;;;;5041257;28;20592;-63
2023/12/05 06:46:28;;;;;;;32.57;19.67;;;-0.30;99.90;;;;;;5040331;28;20208;-52
2023/12/05 06:48:54;;;;;;;31.87;20.10;;;-0.40;99.90;;;;;;5041130;28;20194;-52
2023/12/05 06:51:19;;;;;;;32.87;21.20;;;-0.40;99.90;;;;;;5041516;28;20204;-52
2023/12/05 06:53:48;;;;;;;31.40;19.67;;;-0.30;99.90;;;;;;5054130;28;20180;-53
2023/12/05 06:56:15;;;;;;;31.87;20.63;;;-0.30;99.90;;;;;;5048052;28;20240;-52
2023/12/05 06:58:41;;;;;;;30.63;21.53;;;-0.40;99.90;;;;;;5049650;28;20566;-63
2023/12/05 07:01:07;;;;;;;25.67;14.77;;;-0.40;99.90;;;;;;5044932;28;20729;-52
2023/12/05 07:03:33;;;;;;;38.33;21.23;;;-0.30;99.90;;;;;;5044039;28;20693;-54
2023/12/05 07:05:58;;;;;;;36.67;20.50;;;-0.40;99.90;;;;;;5042113;28;20211;-53
2023/12/05 07:08:24;;;;;;;34.40;19.87;;;0.00;99.90;;;;;;5019575;28;20191;-54
2023/12/05 07:10:49;;;;;;;31.67;15.30;;;-0.10;99.90;;;;;;5031682;28;21077;-55
2023/12/05 07:13:15;;;;;;;26.07;16.67;;;-0.10;99.90;;;;;;5039496;28;20731;-51
2023/12/05 07:15:41;;;;;;;32.70;19.67;;;-0.30;99.90;;;;;;5040971;28;21111;-55
2023/12/05 07:18:07;;;;;;;27.37;18.17;;;-0.40;99.90;;;;;;5032168;28;20650;-52
2023/12/05 07:20:33;;;;;;;26.47;17.93;;;-0.30;99.90;;;;;;5038460;28;20293;-52
2023/12/05 07:22:58;;;;;;;19.40;11.63;;;-0.40;99.90;;;;;;5042112;28;20206;-52
2023/12/05 07:25:24;;;;;;;28.73;20.80;;;-0.30;99.90;;;;;;5043135;28;20613;-52
2023/12/05 07:27:49;;;;;;;33.60;21.10;;;-0.40;99.90;;;;;;5032251;28;20208;-51
2023/12/05 07:30:15;;;;;;;31.87;20.90;;;-0.40;99.90;;;;;;5045769;28;20244;-52
2023/12/05 07:32:41;;;;;;;27.67;18.47;;;-0.50;99.90;;;;;;5046947;28;20202;-61
2023/12/05 07:35:07;;;;;;;31.03;19.23;;;-0.40;99.90;;;;;;5052257;28;20281;-65
2023/12/05 07:37:32;;;;;;;31.43;19.17;;;-0.30;99.90;;;;;;5021211;28;20200;-56
2023/12/05 07:39:58;;;;;;;36.00;20.13;;;-0.40;99.90;;;;;;5045265;28;20248;-53
2023/12/05 07:42:23;;;;;;;34.03;20.63;;;-0.50;99.90;;;;;;5049815;28;20233;-53
2023/12/05 07:44:49;;;;;;;28.30;19.20;;;-0.40;99.90;;;;;;5046434;28;20705;-53
2023/12/05 07:47:14;;;;;;;33.30;21.33;;;-0.50;99.90;;;;;;5040831;28;20205;-53
2023/12/05 07:49:44;;;;;;;36.50;21.70;;;-0.50;99.90;;;;;;5046018;28;20222;-53
2023/12/05 07:52:10;;;;;;;28.60;18.60;;;-0.40;99.90;;;;;;5046920;28;20884;-53
2023/12/05 07:54:35;;;;;;;30.20;22.33;;;-0.30;99.90;;;;;;5042677;28;20288;-53
2023/12/05 07:57:01;;;;;;;36.00;21.53;;;-0.20;99.90;;;;;;5050679;28;20230;-53
2023/12/05 07:59:26;;;;;;;33.47;21.70;;;-0.20;99.90;;;;;;5046181;28;20192;-53
2023/12/05 08:01:52;;;;;;;36.60;22.27;;;-0.10;99.90;;;;;;5028261;28;20298;-53
2023/12/05 08:04:17;;;;;;;34.13;18.20;;;0.00;99.90;;;;;;5046572;28;20216;-54
2023/12/05 08:06:43;;;;;;;24.27;16.70;;;-0.30;99.90;;;;;;5045162;28;20197;-54
2023/12/05 08:09:09;;;;;;;29.83;19.07;;;-0.50;99.90;;;;;;5044022;28;20650;-53
2023/12/05 08:11:35;;;;;;;30.07;19.33;;;-0.50;99.90;;;;;;5046493;28;20207;-52
2023/12/05 08:14:01;;;;;;;32.20;21.03;;;-0.50;99.90;;;;;;5038518;28;20986;-51
2023/12/05 08:16:27;;;;;;;29.17;20.47;;;-0.40;99.90;;;;;;5048080;28;20232;-52
2023/12/05 08:18:52;;;;;;;26.23;17.90;;;-0.20;99.90;;;;;;5046653;28;20641;-51
2023/12/05 08:21:18;;;;;;;33.33;21.57;;;-0.10;99.90;;;;;;5029866;28;20700;-53
2023/12/05 08:23:43;;;;;;;35.27;21.37;;;-0.10;99.90;;;;;;5046718;28;20222;-53
2023/12/05 08:26:09;;;;;;;34.97;21.33;;;-0.10;99.90;;;;;;5042638;28;20273;-53
2023/12/05 08:28:36;;;;;;;33.47;20.93;;;-0.10;99.90;;;;;;5043417;28;20294;-52
2023/12/05 08:31:01;;;;;;;38.37;23.40;;;0.00;99.90;;;;;;5042038;28;20201;-53
2023/12/05 08:33:27;;;;;;;28.77;20.40;;;0.00;99.90;;;;;;5052233;28;20210;-54
2023/12/05 08:35:53;;;;;;;30.07;19.33;;;0.00;99.90;;;;;;5024055;28;20247;-54
2023/12/05 08:38:18;;;;;;;36.60;21.37;;;0.00;99.90;;;;;;5047766;28;20218;-54
2023/12/05 08:40:43;;;;;;;27.27;18.77;;;0.10;99.90;;;;;;5044333;28;20223;-54
2023/12/05 08:43:10;;;;;;;32.83;20.17;;;-0.10;99.90;;;;;;5048138;28;20244;-57
2023/12/05 08:45:35;;;;;;;32.27;21.67;;;-0.10;99.90;;;;;;5046979;28;20244;-55
2023/12/05 08:48:01;;;;;;;32.33;20.33;;;0.00;99.90;;;;;;5046660;28;20708;-58
2023/12/05 08:50:26;;;;;;;28.47;20.77;;;0.10;99.90;;;;;;5048343;28;20208;-53
2023/12/05 08:52:52;;;;;;;37.03;23.20;;;0.30;99.90;;;;;;5049905;28;20938;-52
2023/12/05 08:55:18;;;;;;;33.03;21.80;;;0.20;99.90;;;;;;5049731;28;20245;-53
2023/12/05 08:57:43;;;;;;;31.70;20.37;;;0.30;99.90;;;;;;5051927;28;20206;-60
2023/12/05 09:00:09;;;;;;;30.40;20.50;;;0.30;99.90;;;;;;5046174;28;20196;-62
2023/12/05 09:02:35;;;;;;;33.43;23.33;;;0.20;99.90;;;;;;5044822;28;20227;-58
2023/12/05 09:05:01;;;;;;;33.17;21.43;;;0.20;99.90;;;;;;5047864;28;21250;-58
2023/12/05 09:07:27;;;;;;;34.20;22.13;;;0.00;99.90;;;;;;5049851;28;20899;-59
2023/12/05 09:09:52;;;;;;;28.70;20.43;;;0.20;99.90;;;;;;5027724;28;20204;-57
2023/12/05 09:12:17;;;;;;;34.37;23.17;;;0.20;99.90;;;;;;5046514;28;20211;-60
2023/12/05 09:14:43;;;;;;;30.60;20.80;;;0.20;99.90;;;;;;5049316;28;20223;-55
2023/12/05 09:17:10;;;;;;;32.67;23.53;;;0.20;99.90;;;;;;5043114;28;20208;-53
2023/12/05 09:19:35;;;;;;;27.03;17.17;;;0.20;99.90;;;;;;5041916;28;20706;-53
2023/12/05 09:22:02;;;;;;;28.37;21.50;;;0.10;99.90;;;;;;5043002;28;20249;-52
2023/12/05 09:24:28;;;;;;;33.77;20.17;;;0.40;99.90;;;;;;5044869;28;20220;-54
2023/12/05 09:26:53;;;;;;;31.00;21.70;;;0.50;99.90;;;;;;5042675;28;20666;-53
2023/12/05 09:29:19;;;;;;;26.83;19.97;;;0.60;99.90;;;;;;5036332;28;20224;-53
2023/12/05 09:31:45;;;;;;;33.83;17.40;;;0.50;99.90;;;;;;5051289;28;20227;-53
2023/12/05 09:34:10;;;;;;;26.43;19.67;;;0.30;99.90;;;;;;5041434;28;20217;-52
2023/12/05 09:36:35;;;;;;;29.23;20.17;;;0.40;99.90;;;;;;5042602;28;20194;-63
2023/12/05 09:39:02;;;;;;;33.80;21.43;;;0.50;99.90;;;;;;5028940;28;20691;-56
2023/12/05 09:41:28;;;;;;;32.67;21.43;;;0.50;99.90;;;;;;5046074;28;20592;-52
2023/12/05 09:43:54;;;;;;;29.90;19.57;;;0.60;99.90;;;;;;5043977;28;20216;-54
2023/12/05 09:46:25;;;;;;;31.13;20.90;;;0.70;99.90;;;;;;5041442;28;20346;-52
2023/12/05 09:48:57;;;;;;;34.03;20.27;;;0.70;99.90;;;;;;5039196;28;20902;-52
2023/12/05 09:51:23;;;;;;;33.60;20.93;;;0.60;99.90;;;;;;5004488;28;20210;-52
2023/12/05 09:53:52;;;;;;;29.27;18.90;;;0.60;99.90;;;;;;5044006;28;20201;-52
2023/12/05 09:56:19;;;;;;;32.27;20.37;;;0.70;99.90;;;;;;5041152;28;20211;-52
2023/12/05 09:58:45;;;;;;;25.43;18.87;;;0.70;99.90;;;;;;5044153;28;20247;-53
2023/12/05 10:01:15;;;;;;;31.17;20.77;;;0.70;99.90;;;;;;5048233;28;20725;-52
2023/12/05 10:03:43;;;;;;;22.67;15.97;;;0.70;99.90;;;;;;5027724;28;20272;-53
2023/12/05 10:06:10;;;;;;;33.93;20.90;;;0.70;99.90;;;;;;5039428;28;20209;-54
2023/12/05 10:08:37;;;;;;;33.03;19.60;;;0.80;99.90;;;;;;5045111;28;20204;-52
2023/12/05 10:11:04;;;;;;;28.97;21.33;;;0.60;99.90;;;;;;5044670;28;20777;-55
2023/12/05 10:13:30;;;;;;;30.50;18.97;;;0.60;99.90;;;;;;5045177;28;20201;-53
2023/12/05 10:15:58;;;;;;;35.93;20.30;;;0.70;99.90;;;;;;5044792;28;20228;-53
2023/12/05 10:18:24;;;;;;;28.67;19.40;;;0.70;99.90;;;;;;5044152;28;20326;-54
2023/12/05 10:20:50;;;;;;;29.27;17.40;;;0.80;99.90;;;;;;5044400;28;20246;-54
2023/12/05 10:23:15;;;;;;;26.43;19.57;;;0.80;99.90;;;;;;5040925;28;20208;-52
2023/12/05 10:25:42;;;;;;;30.23;20.37;;;0.60;99.90;;;;;;5049675;28;20212;-52
2023/12/05 10:28:08;;;;;;;34.70;19.50;;;0.70;99.90;;;;;;5039974;28;20216;-52
2023/12/05 10:30:37;;;;;;;28.00;18.83;;;0.90;99.90;;;;;;5045277;28;20836;-53
2023/12/05 10:33:28;;;;;;;28.73;19.43;;;1.00;99.90;;;;;;5046422;28;20194;-53
2023/12/05 10:35:55;;;;;;;24.97;18.77;;;0.90;99.90;;;;;;5041068;28;20205;-52
2023/12/05 10:38:21;;;;;;;26.63;17.93;;;1.00;99.90;;;;;;5023933;28;20781;-53
2023/12/05 10:40:52;;;;;;;36.00;21.73;;;0.90;99.90;;;;;;5044113;28;20778;-53
2023/12/05 10:43:19;;;;;;;30.83;20.73;;;0.90;99.90;;;;;;5048571;28;20211;-63
2023/12/05 10:45:44;;;;;;;28.83;19.77;;;0.90;99.90;;;;;;5041637;28;20247;-56
2023/12/05 10:48:11;;;;;;;28.37;20.13;;;1.00;99.90;;;;;;5046546;28;20281;-54
2023/12/05 10:50:39;;;;;;;23.73;17.37;;;1.10;99.90;;;;;;5033136;28;20248;-55
2023/12/05 10:53:05;;;;;;;24.80;18.57;;;1.00;99.90;;;;;;5025436;28;20210;-54
2023/12/05 10:55:30;;;;;;;22.30;15.90;;;1.00;99.90;;;;;;5050359;28;20319;-54
2023/12/05 10:57:57;;;;;;;30.17;18.87;;;0.90;99.90;;;;;;5047571;28;20302;-54
2023/12/05 11:00:22;;;;;;;22.87;16.57;;;0.90;99.90;;;;;;5044196;28;20208;-53
2023/12/05 11:02:51;;;;;;;27.47;18.27;;;0.90;99.90;;;;;;5045185;28;20420;-53
2023/12/05 11:05:18;;;;;;;30.37;20.37;;;0.80;99.90;;;;;;5049505;28;20206;-52
2023/12/05 11:07:44;;;;;;;25.73;18.00;;;1.00;99.90;;;;;;5048727;28;20205;-53
2023/12/05 11:10:10;;;;;;;26.50;18.83;;;1.10;99.90;;;;;;5049422;28;20219;-54
2023/12/05 11:12:37;;;;;;;26.23;17.23;;;1.20;99.90;;;;;;5030058;28;20209;-54
2023/12/05 11:15:03;;;;;;;26.40;15.47;;;1.00;99.90;;;;;;5051224;28;20228;-53
2023/12/05 11:17:37;;;;;;;25.07;18.07;;;0.80;99.90;;;;;;5049631;28;20436;-54
2023/12/05 11:20:23;;;;;;;19.07;14.20;;;0.80;99.90;;;;;;5039572;28;20255;-54
2023/12/05 11:23:15;;;;;;;29.53;18.83;;;0.90;99.90;;;;;;5019735;28;20325;-56
2023/12/05 11:26:00;;;;;;;22.97;16.27;;;1.00;99.90;;;;;;5045345;28;20211;-53
2023/12/05 11:28:58;;;;;;;26.70;18.50;;;0.90;99.90;;;;;;5047783;28;20201;-53
2023/12/05 11:31:37;;;;;;;28.17;20.03;;;0.80;99.90;;;;;;5051518;28;20308;-53
2023/12/05 11:34:32;;;;;;;27.53;19.17;;;1.10;99.90;;;;;;5051043;28;20210;-53
2023/12/05 11:37:01;;;;;;;28.07;18.80;;;1.30;99.90;;;;;;5047384;28;20219;-53
2023/12/05 11:39:27;;;;;;;28.63;17.53;;;1.40;99.90;;;;;;5052660;28;20568;-62
2023/12/05 11:42:14;;;;;;;25.33;17.23;;;1.50;99.90;;;;;;5019935;28;20225;-62
2023/12/05 11:44:40;;;;;;;26.40;18.67;;;1.30;99.90;;;;;;5041604;28;20545;-54
2023/12/05 11:47:28;;;;;;;21.97;16.40;;;1.40;99.90;;;;;;5046427;28;20206;-61
2023/12/05 11:49:58;;;;;;;21.50;14.07;;;1.40;99.90;;;;;;5052638;28;20197;-53
2023/12/05 11:52:27;;;;;;;22.93;18.40;;;1.30;99.90;;;;;;5044620;28;20213;-53
2023/12/05 11:54:53;;;;;;;26.30;17.40;;;1.30;99.90;;;;;;5047281;28;20242;-53
2023/12/05 11:57:23;;;;;;;17.90;13.43;;;1.40;99.90;;;;;;5049299;28;20251;-53
2023/12/05 11:59:54;;;;;;;24.77;16.60;;;1.40;99.90;;;;;;5048839;28;20336;-54
2023/12/05 12:02:31;;;;;;;22.37;17.47;;;1.40;99.90;;;;;;5042898;28;20208;-55
2023/12/05 12:05:09;;;;;;;25.50;17.77;;;1.40;99.90;;;;;;5048354;28;20243;-54
2023/12/05 12:07:52;;;;;;;26.20;17.97;;;1.30;99.90;;;;;;5046013;28;20205;-55
2023/12/05 12:10:18;;;;;;;23.97;15.67;;;1.40;99.90;;;;;;5047219;28;20357;-66
2023/12/05 12:12:45;;;;;;;28.80;19.03;;;1.30;99.90;;;;;;5047849;28;20197;-67
2023/12/05 12:15:11;;;;;;;25.87;17.50;;;1.40;99.90;;;;;;5023356;28;20220;-55
2023/12/05 12:17:42;;;;;;;25.47;17.70;;;1.50;99.90;;;;;;5021344;28;20279;-53
2023/12/05 12:20:18;;;;;;;23.73;18.57;;;1.60;99.90;;;;;;5020241;28;20211;-53
2023/12/05 12:22:48;;;;;;;26.03;18.00;;;1.70;99.90;;;;;;5027679;28;20261;-52
2023/12/05 12:25:13;;;;;;;26.53;18.40;;;1.70;99.90;;;;;;5016744;28;20222;-54
2023/12/05 12:27:40;;;;;;;25.93;17.20;;;1.80;99.90;;;;;;5017512;28;20480;-54
2023/12/05 12:30:14;;;;;;;21.80;14.73;;;1.80;99.90;;;;;;5022646;28;20214;-53